Umm al Qaywayn, United Arab Emirates
Current Conditions -  °F | °C
As of 11:00 AM on Sunday 26 Oct 2014 (Local Time) from OMSJ Reporting Station
Clear Clear  
Wind Chill: 91°   Ceiling: Unl
Heat Index: 93°   Visibility: 6mi
Dew Point: 64°   Wind: 3mph
Humidity: 41%   Direction: NA
Pressure: 29.94"   Gusts: NA
Location:  25.59°N, 55.56°E
Report Text: OMSJ 260700Z VRB03KT CAVOK 33/18 Q1014
Loading
Personal Weather Stations






























Interactive Weather Map
Tropical Storm Tracking
New forecast layout! Learn more

10-Day Weather Forecast

Advertisements
Track Severe Weather on mobile